»·PEaware :: UAL576 KRNO-KDEN

UAL576 :: KRNO-KDEN

FLIGHT INFORMATION

Flight Status: Arrived
Operator:
United Airlines
More flights by this operator :: More flights under this callsign
Pilot: Anonymous 8274 (8274)
Aircraft: BOEING 737-200
(B732)
More flights by this aircraft type
Origin: KRNO Reno/Tahoe Intl
United States
Destination: KDEN Denver Intl
United States
More flights between these airports :: More routes between these airports
Route: WAGGE6 LLC J32 BAM J154 TCH J173 EKR TOMSN7
File this flight plan on PilotEdge
Remarks:
Altitude:
(Current/Filed)
33,000ft
Speed:
(Current/Filed)
460kts
Departed: 27-Jun-19 05:32 PM
Arrived: 27-Jun-19 07:24 PM
Distance/Time
Traveled:
696nm/1:52
Distance/Time
To Go:
Arrived

Flight Plot

Page will automatically refresh every two minutes.


Map Options




Map Legend


Flown Route
Filed Route
Departure Airport
Arrival Airport
Navaid (VOR, NDB)
Fix

Horizontal Profiles

Position Reports

Time Latitude Longitude Heading Altitude Ground
Speed
27-Jun-19 16:54 39.506602 -119.773250 0 4417ft 0kts
27-Jun-19 16:55 39.506602 -119.773250 0 4417ft 0kts
27-Jun-19 16:56 39.506602 -119.773250 0 4417ft 0kts
27-Jun-19 16:57 39.506602 -119.773250 0 4417ft 0kts
27-Jun-19 16:58 39.506602 -119.773250 0 4417ft 0kts
27-Jun-19 16:59 39.506602 -119.773250 0 4417ft 0kts
27-Jun-19 17:00 39.506602 -119.773250 0 4417ft 0kts
27-Jun-19 17:01 39.506602 -119.773250 0 4417ft 0kts
27-Jun-19 17:02 39.506602 -119.773250 0 4417ft 0kts
27-Jun-19 17:03 39.506602 -119.773250 0 4417ft 0kts
27-Jun-19 17:04 39.506602 -119.773250 0 4417ft 0kts
27-Jun-19 17:05 39.506602 -119.773250 0 4417ft 0kts
27-Jun-19 17:06 39.506602 -119.773250 0 4417ft 0kts
27-Jun-19 17:07 39.506602 -119.773250 0 4417ft 0kts
27-Jun-19 17:08 39.506602 -119.773250 0 4417ft 0kts
27-Jun-19 17:09 39.506602 -119.773250 0 4417ft 0kts
27-Jun-19 17:10 39.506602 -119.773250 0 4417ft 0kts
27-Jun-19 17:11 39.506602 -119.773250 0 4417ft 0kts
27-Jun-19 17:12 39.506602 -119.773250 0 4417ft 0kts
27-Jun-19 17:13 39.506602 -119.773250 0 4417ft 0kts
27-Jun-19 17:14 39.506602 -119.773250 0 4417ft 0kts
27-Jun-19 17:15 39.506350 -119.773254 0 4418ft 2kts
27-Jun-19 17:16 39.505883 -119.773534 88 4418ft 0kts
27-Jun-19 17:17 39.505882 -119.773570 89 4417ft 0kts
27-Jun-19 17:18 39.505882 -119.773570 89 4417ft 0kts
27-Jun-19 17:19 39.505882 -119.773570 89 4417ft 0kts
27-Jun-19 17:20 39.505882 -119.773570 89 4417ft 0kts
27-Jun-19 17:21 39.505885 -119.772735 90 4417ft 5kts
27-Jun-19 17:22 39.505881 -119.772209 90 4417ft 0kts
27-Jun-19 17:23 39.505881 -119.772209 90 4417ft 0kts
27-Jun-19 17:24 39.506167 -119.771493 7 4417ft 11kts
27-Jun-19 17:25 39.510183 -119.771481 359 4417ft 14kts
27-Jun-19 17:26 39.513722 -119.771110 74 4417ft 11kts
27-Jun-19 17:27 39.513743 -119.770452 92 4417ft 0kts
27-Jun-19 17:28 39.513743 -119.770452 92 4417ft 0kts
27-Jun-19 17:29 39.513743 -119.770452 92 4417ft 0kts
27-Jun-19 17:30 39.513741 -119.770376 92 4417ft 4kts
27-Jun-19 17:31 39.507355 -119.769228 181 4418ft 102kts
27-Jun-19 17:32 39.467817 -119.768751 189 5859ft 156kts
27-Jun-19 17:33 39.415247 -119.769775 183 7516ft 220kts
27-Jun-19 17:34 39.347640 -119.767720 184 9866ft 277kts
27-Jun-19 17:35 39.263472 -119.768363 169 12372ft 330kts
27-Jun-19 17:36 39.215968 -119.669424 83 15287ft 382kts
27-Jun-19 17:37 39.285542 -119.566386 30 17747ft 404kts
27-Jun-19 17:38 39.373146 -119.471246 43 19946ft 426kts
27-Jun-19 17:39 39.461794 -119.364335 43 21957ft 444kts
27-Jun-19 17:40 39.548504 -119.249554 44 23671ft 460kts
27-Jun-19 17:41 39.641070 -119.129628 41 25214ft 475kts
27-Jun-19 17:42 39.738358 -119.011366 41 26634ft 487kts
27-Jun-19 17:43 39.839959 -118.892509 36 28061ft 494kts
27-Jun-19 17:44 39.949835 -118.787142 32 29640ft 492kts
27-Jun-19 17:45 40.057405 -118.673081 37 30783ft 502kts
27-Jun-19 17:46 40.150990 -118.543687 49 32033ft 506kts
27-Jun-19 17:47 40.195033 -118.371826 81 32840ft 507kts
27-Jun-19 17:48 40.230258 -118.195054 72 33063ft 510kts
27-Jun-19 17:49 40.279812 -118.021930 72 33062ft 508kts
27-Jun-19 17:50 40.329324 -117.849078 72 33079ft 506kts
27-Jun-19 17:51 40.378690 -117.676517 73 33084ft 505kts
27-Jun-19 17:52 40.423950 -117.501261 75 33084ft 506kts
27-Jun-19 17:53 40.461719 -117.326186 78 33064ft 509kts
27-Jun-19 17:54 40.506060 -117.149626 71 33062ft 513kts
27-Jun-19 17:55 40.558164 -116.974970 72 33067ft 514kts
27-Jun-19 17:56 40.589033 -116.792749 87 33067ft 509kts
27-Jun-19 17:57 40.602379 -116.607678 90 33070ft 507kts
27-Jun-19 17:58 40.610452 -116.422058 90 33072ft 508kts
27-Jun-19 17:59 40.618627 -116.238073 91 33061ft 508kts
27-Jun-19 18:00 40.627030 -116.052129 91 33064ft 507kts
27-Jun-19 18:01 40.635487 -115.867314 90 33066ft 507kts
27-Jun-19 18:02 40.644019 -115.682118 90 33069ft 507kts
27-Jun-19 18:03 40.652653 -115.496640 90 33072ft 508kts
27-Jun-19 18:04 40.661200 -115.314431 91 33062ft 509kts
27-Jun-19 18:05 40.670157 -115.129030 90 33066ft 508kts
27-Jun-19 18:06 40.679231 -114.943998 92 33065ft 504kts
27-Jun-19 18:07 40.682347 -114.759979 93 32994ft 502kts
27-Jun-19 18:08 40.685523 -114.576218 93 32969ft 499kts
27-Jun-19 18:09 40.692930 -114.394088 87 32971ft 501kts
27-Jun-19 18:10 40.709414 -114.212735 87 32962ft 498kts
27-Jun-19 18:11 40.721059 -114.032457 90 32955ft 493kts
27-Jun-19 18:12 40.721444 -113.852746 97 32957ft 487kts
27-Jun-19 18:13 40.735604 -113.675517 85 32959ft 492kts
27-Jun-19 18:14 40.747611 -113.496680 90 32961ft 488kts
27-Jun-19 18:15 40.756810 -113.321843 90 32955ft 488kts
27-Jun-19 18:17 40.768687 -113.141471 88 32976ft 487kts
27-Jun-19 18:18 40.783583 -112.964188 87 33003ft 487kts
27-Jun-19 18:19 40.798346 -112.786835 87 33005ft 486kts
27-Jun-19 18:20 40.812316 -112.610209 87 33006ft 485kts
27-Jun-19 18:21 40.826447 -112.432582 87 33008ft 485kts
27-Jun-19 18:22 40.837163 -112.256342 89 32999ft 484kts
27-Jun-19 18:23 40.847218 -112.079137 91 33005ft 482kts
27-Jun-19 18:24 40.848001 -111.902628 108 33009ft 470kts
27-Jun-19 18:25 40.813729 -111.736201 111 33001ft 468kts
27-Jun-19 18:26 40.779185 -111.570102 110 33004ft 468kts
27-Jun-19 18:27 40.744876 -111.404354 110 33122ft 466kts
27-Jun-19 18:28 40.714434 -111.243183 108 33164ft 467kts
27-Jun-19 18:29 40.686925 -111.077492 107 33221ft 465kts
27-Jun-19 18:30 40.658439 -110.911670 107 33222ft 464kts
27-Jun-19 18:31 40.628890 -110.746231 107 33220ft 464kts
27-Jun-19 18:32 40.599360 -110.580645 107 33203ft 464kts
27-Jun-19 18:33 40.569993 -110.415368 107 33184ft 464kts
27-Jun-19 18:34 40.541302 -110.253074 107 33137ft 465kts
27-Jun-19 18:35 40.512141 -110.087184 107 33117ft 464kts
27-Jun-19 18:35 40.488115 -109.949908 107 33118ft 464kts
27-Jun-19 18:37 40.454655 -109.757639 107 33120ft 463kts
27-Jun-19 18:38 40.426207 -109.593117 107 33121ft 463kts
27-Jun-19 18:38 40.402619 -109.455989 106 33122ft 463kts
27-Jun-19 18:40 40.370992 -109.270906 107 33115ft 463kts
27-Jun-19 18:40 40.347613 -109.133704 107 33116ft 462kts
27-Jun-19 18:41 40.311556 -108.973280 111 33118ft 458kts
27-Jun-19 18:42 40.271043 -108.815703 111 33119ft 457kts
27-Jun-19 18:43 40.228383 -108.659561 115 33140ft 455kts
27-Jun-19 18:44 40.181163 -108.505958 111 33213ft 455kts
27-Jun-19 18:45 40.148210 -108.350514 107 33241ft 457kts
27-Jun-19 18:46 40.119287 -108.191547 104 33234ft 458kts
27-Jun-19 18:47 40.093561 -108.028746 104 33236ft 458kts
27-Jun-19 18:48 40.068067 -107.865929 102 33235ft 459kts
27-Jun-19 18:49 40.112241 -107.715828 48 33244ft 461kts
27-Jun-19 18:50 40.160083 -107.562935 79 33222ft 462kts
27-Jun-19 18:51 40.187647 -107.398314 75 33232ft 465kts
27-Jun-19 18:52 40.222854 -107.241689 74 33254ft 469kts
27-Jun-19 18:53 40.263532 -107.078925 72 33255ft 473kts
27-Jun-19 18:54 40.305060 -106.914845 71 33265ft 476kts
27-Jun-19 18:55 40.346018 -106.749601 71 33276ft 478kts
27-Jun-19 18:56 40.383752 -106.582292 73 33277ft 480kts
27-Jun-19 18:57 40.420826 -106.414341 73 33300ft 481kts
27-Jun-19 18:58 40.457073 -106.251062 73 33309ft 480kts
27-Jun-19 18:59 40.494223 -106.084442 73 31796ft 473kts
27-Jun-19 19:00 40.523029 -105.919449 86 29792ft 458kts
27-Jun-19 19:01 40.528301 -105.755603 92 27822ft 444kts
27-Jun-19 19:02 40.518550 -105.596402 113 25846ft 429kts
27-Jun-19 19:03 40.440619 -105.487061 144 23920ft 406kts
27-Jun-19 19:04 40.348771 -105.402069 148 21795ft 401kts
27-Jun-19 19:05 40.259859 -105.322618 146 19963ft 391kts
27-Jun-19 19:06 40.175362 -105.235365 141 18113ft 384kts
27-Jun-19 19:07 40.102762 -105.136085 135 16956ft 357kts
27-Jun-19 19:08 40.051244 -105.037984 97 16972ft 337kts
27-Jun-19 19:09 40.092504 -104.932600 53 15716ft 334kts
27-Jun-19 19:10 40.150118 -104.841343 53 14560ft 320kts
27-Jun-19 19:11 40.206275 -104.752664 52 13259ft 312kts
27-Jun-19 19:12 40.261015 -104.665855 52 11981ft 305kts
27-Jun-19 19:13 40.314211 -104.581212 52 10733ft 299kts
27-Jun-19 19:14 40.314263 -104.488985 143 9395ft 281kts
27-Jun-19 19:15 40.238443 -104.487837 187 8106ft 281kts
27-Jun-19 19:16 40.162053 -104.506048 200 6930ft 277kts
27-Jun-19 19:17 40.104297 -104.561130 216 6933ft 244kts
27-Jun-19 19:18 40.053033 -104.617268 217 6933ft 237kts
27-Jun-19 19:19 40.005847 -104.669684 217 6954ft 205kts
27-Jun-19 19:20 39.959180 -104.686994 175 6636ft 149kts
27-Jun-19 19:21 39.920138 -104.686718 176 5853ft 137kts
27-Jun-19 19:22 39.884889 -104.686945 178 5364ft 92kts
27-Jun-19 19:23 39.876034 -104.685457 150 5358ft 0kts
27-Jun-19 19:24 39.876034 -104.685457 150 5358ft 0kts
27-Jun-19 19:25 39.874255 -104.683772 179 5357ft 11kts
27-Jun-19 19:26 39.871178 -104.683817 179 5359ft 15kts
27-Jun-19 19:27 39.865118 -104.683880 179 5363ft 25kts
27-Jun-19 19:28 39.858940 -104.683960 180 5373ft 21kts
27-Jun-19 19:29 39.857414 -104.683970 180 5373ft 0kts
27-Jun-19 19:30 39.857414 -104.683970 180 5373ft 0kts
27-Jun-19 19:31 39.857414 -104.683970 180 5373ft 0kts
27-Jun-19 19:32 39.857414 -104.683970 180 5373ft 0kts
27-Jun-19 19:33 39.856697 -104.681134 91 5380ft 13kts
27-Jun-19 19:34 39.857528 -104.677336 21 5380ft 5kts
27-Jun-19 19:35 39.858035 -104.677300 0 5380ft 0kts
27-Jun-19 19:36 39.858034 -104.677300 0 5380ft 0kts

Navigation Log

Ident Type
Flight plan parsing failed, navigation log unavailable